sensor_id;sensor_type;location;lat;lon;timestamp;P1;durP1;ratioP1;P2;durP2;ratioP2
663;SDS011;314;48.770;9.246;2022-08-18T00:02:25;6.68;;;3.60;;
663;SDS011;314;48.770;9.246;2022-08-18T00:04:54;6.45;;;3.80;;
663;SDS011;314;48.770;9.246;2022-08-18T00:07:28;5.07;;;3.42;;
663;SDS011;314;48.770;9.246;2022-08-18T00:09:56;6.78;;;4.00;;
663;SDS011;314;48.770;9.246;2022-08-18T00:12:30;5.82;;;3.53;;
663;SDS011;314;48.770;9.246;2022-08-18T00:14:58;8.70;;;4.07;;
663;SDS011;314;48.770;9.246;2022-08-18T00:17:30;11.32;;;4.50;;
663;SDS011;314;48.770;9.246;2022-08-18T00:19:57;8.05;;;4.80;;
663;SDS011;314;48.770;9.246;2022-08-18T00:22:23;5.75;;;3.95;;
663;SDS011;314;48.770;9.246;2022-08-18T00:24:50;5.50;;;4.00;;
663;SDS011;314;48.770;9.246;2022-08-18T00:27:19;5.97;;;4.20;;
663;SDS011;314;48.770;9.246;2022-08-18T00:29:47;6.30;;;3.33;;
663;SDS011;314;48.770;9.246;2022-08-18T00:32:14;8.20;;;3.88;;
663;SDS011;314;48.770;9.246;2022-08-18T00:34:44;9.20;;;4.57;;
663;SDS011;314;48.770;9.246;2022-08-18T00:37:10;6.70;;;3.27;;
663;SDS011;314;48.770;9.246;2022-08-18T00:39:36;4.95;;;3.10;;
663;SDS011;314;48.770;9.246;2022-08-18T00:42:12;5.95;;;3.42;;
663;SDS011;314;48.770;9.246;2022-08-18T00:44:44;5.93;;;3.70;;
663;SDS011;314;48.770;9.246;2022-08-18T00:47:10;6.17;;;3.60;;
663;SDS011;314;48.770;9.246;2022-08-18T00:49:36;7.90;;;3.40;;
663;SDS011;314;48.770;9.246;2022-08-18T00:52:04;7.47;;;3.90;;
663;SDS011;314;48.770;9.246;2022-08-18T00:54:31;5.20;;;3.58;;
663;SDS011;314;48.770;9.246;2022-08-18T00:57:01;9.23;;;3.60;;
663;SDS011;314;48.770;9.246;2022-08-18T00:59:43;6.40;;;3.72;;
663;SDS011;314;48.770;9.246;2022-08-18T01:02:19;9.70;;;3.47;;
663;SDS011;314;48.770;9.246;2022-08-18T01:04:53;6.53;;;3.30;;
663;SDS011;314;48.770;9.246;2022-08-18T01:07:28;6.15;;;3.75;;
663;SDS011;314;48.770;9.246;2022-08-18T01:09:58;7.68;;;3.95;;
663;SDS011;314;48.770;9.246;2022-08-18T01:12:24;6.00;;;3.40;;
663;SDS011;314;48.770;9.246;2022-08-18T01:14:51;5.78;;;3.13;;
663;SDS011;314;48.770;9.246;2022-08-18T01:17:18;6.85;;;3.72;;
663;SDS011;314;48.770;9.246;2022-08-18T01:20:03;4.45;;;3.20;;
663;SDS011;314;48.770;9.246;2022-08-18T01:22:59;4.63;;;2.70;;
663;SDS011;314;48.770;9.246;2022-08-18T01:25:29;7.25;;;2.95;;
663;SDS011;314;48.770;9.246;2022-08-18T01:28:14;6.85;;;4.25;;
663;SDS011;314;48.770;9.246;2022-08-18T01:30:46;6.03;;;3.15;;
663;SDS011;314;48.770;9.246;2022-08-18T01:33:15;5.05;;;3.45;;
663;SDS011;314;48.770;9.246;2022-08-18T01:35:44;3.97;;;2.90;;
663;SDS011;314;48.770;9.246;2022-08-18T01:38:16;6.57;;;3.20;;
663;SDS011;314;48.770;9.246;2022-08-18T01:40:44;7.22;;;3.22;;
663;SDS011;314;48.770;9.246;2022-08-18T01:43:10;5.75;;;3.55;;
663;SDS011;314;48.770;9.246;2022-08-18T01:45:38;3.33;;;2.72;;
663;SDS011;314;48.770;9.246;2022-08-18T01:48:05;10.68;;;4.38;;
663;SDS011;314;48.770;9.246;2022-08-18T01:50:31;10.85;;;4.00;;
663;SDS011;314;48.770;9.246;2022-08-18T01:52:58;15.43;;;4.50;;
663;SDS011;314;48.770;9.246;2022-08-18T01:55:25;7.13;;;3.63;;
663;SDS011;314;48.770;9.246;2022-08-18T01:57:52;4.45;;;4.05;;
663;SDS011;314;48.770;9.246;2022-08-18T02:00:19;5.40;;;3.25;;
663;SDS011;314;48.770;9.246;2022-08-18T02:02:45;5.35;;;4.03;;
663;SDS011;314;48.770;9.246;2022-08-18T02:05:13;7.20;;;4.13;;
663;SDS011;314;48.770;9.246;2022-08-18T02:07:48;4.65;;;2.80;;
663;SDS011;314;48.770;9.246;2022-08-18T02:10:14;6.22;;;4.00;;
663;SDS011;314;48.770;9.246;2022-08-18T02:12:42;5.53;;;3.58;;
663;SDS011;314;48.770;9.246;2022-08-18T02:15:08;6.50;;;3.63;;
663;SDS011;314;48.770;9.246;2022-08-18T02:17:38;7.15;;;2.80;;
663;SDS011;314;48.770;9.246;2022-08-18T02:20:06;6.68;;;3.83;;
663;SDS011;314;48.770;9.246;2022-08-18T02:22:34;6.05;;;4.55;;
663;SDS011;314;48.770;9.246;2022-08-18T02:25:01;7.63;;;4.22;;
663;SDS011;314;48.770;9.246;2022-08-18T02:27:27;9.07;;;3.78;;
663;SDS011;314;48.770;9.246;2022-08-18T02:29:54;8.55;;;3.90;;
663;SDS011;314;48.770;9.246;2022-08-18T02:32:20;4.63;;;3.05;;
663;SDS011;314;48.770;9.246;2022-08-18T02:34:46;10.57;;;4.20;;
663;SDS011;314;48.770;9.246;2022-08-18T02:37:11;5.43;;;3.97;;
663;SDS011;314;48.770;9.246;2022-08-18T02:39:37;8.93;;;3.63;;
663;SDS011;314;48.770;9.246;2022-08-18T02:42:06;5.13;;;3.27;;
663;SDS011;314;48.770;9.246;2022-08-18T02:44:33;4.80;;;3.55;;
663;SDS011;314;48.770;9.246;2022-08-18T02:46:59;9.05;;;4.55;;
663;SDS011;314;48.770;9.246;2022-08-18T02:49:26;3.35;;;2.60;;
663;SDS011;314;48.770;9.246;2022-08-18T02:51:52;4.15;;;2.60;;
663;SDS011;314;48.770;9.246;2022-08-18T02:54:19;4.00;;;3.25;;
663;SDS011;314;48.770;9.246;2022-08-18T02:56:47;4.95;;;3.58;;
663;SDS011;314;48.770;9.246;2022-08-18T02:59:19;9.05;;;3.28;;
663;SDS011;314;48.770;9.246;2022-08-18T03:01:49;6.18;;;3.22;;
663;SDS011;314;48.770;9.246;2022-08-18T03:04:18;4.32;;;2.83;;
663;SDS011;314;48.770;9.246;2022-08-18T03:06:46;4.28;;;3.00;;
663;SDS011;314;48.770;9.246;2022-08-18T03:09:13;4.70;;;2.67;;
663;SDS011;314;48.770;9.246;2022-08-18T03:11:41;7.05;;;3.22;;
663;SDS011;314;48.770;9.246;2022-08-18T03:14:07;4.65;;;3.25;;
663;SDS011;314;48.770;9.246;2022-08-18T03:16:33;6.10;;;3.47;;
663;SDS011;314;48.770;9.246;2022-08-18T03:19:01;4.43;;;2.83;;
663;SDS011;314;48.770;9.246;2022-08-18T03:21:29;6.70;;;3.97;;
663;SDS011;314;48.770;9.246;2022-08-18T03:23:55;7.82;;;3.95;;
663;SDS011;314;48.770;9.246;2022-08-18T03:26:22;7.00;;;3.80;;
663;SDS011;314;48.770;9.246;2022-08-18T03:28:50;4.78;;;2.90;;
663;SDS011;314;48.770;9.246;2022-08-18T03:31:18;5.95;;;3.03;;
663;SDS011;314;48.770;9.246;2022-08-18T03:33:46;4.22;;;2.25;;
663;SDS011;314;48.770;9.246;2022-08-18T03:36:14;4.72;;;2.90;;
663;SDS011;314;48.770;9.246;2022-08-18T03:38:42;5.82;;;3.05;;
663;SDS011;314;48.770;9.246;2022-08-18T03:41:09;5.90;;;3.25;;
663;SDS011;314;48.770;9.246;2022-08-18T03:43:36;4.30;;;3.00;;
663;SDS011;314;48.770;9.246;2022-08-18T03:46:03;6.20;;;3.57;;
663;SDS011;314;48.770;9.246;2022-08-18T03:48:30;4.60;;;3.10;;
663;SDS011;314;48.770;9.246;2022-08-18T03:51:03;5.88;;;2.70;;
663;SDS011;314;48.770;9.246;2022-08-18T03:53:34;8.05;;;3.88;;
663;SDS011;314;48.770;9.246;2022-08-18T03:56:01;5.93;;;3.25;;
663;SDS011;314;48.770;9.246;2022-08-18T03:58:42;9.30;;;4.40;;
663;SDS011;314;48.770;9.246;2022-08-18T04:01:14;7.97;;;3.45;;
663;SDS011;314;48.770;9.246;2022-08-18T04:03:43;5.65;;;3.15;;
663;SDS011;314;48.770;9.246;2022-08-18T04:06:18;6.82;;;3.47;;
663;SDS011;314;48.770;9.246;2022-08-18T04:08:55;3.50;;;2.60;;
663;SDS011;314;48.770;9.246;2022-08-18T04:11:24;4.70;;;2.97;;
663;SDS011;314;48.770;9.246;2022-08-18T04:13:52;5.18;;;2.95;;
663;SDS011;314;48.770;9.246;2022-08-18T04:16:22;6.15;;;3.00;;
663;SDS011;314;48.770;9.246;2022-08-18T04:18:48;9.77;;;3.45;;
663;SDS011;314;48.770;9.246;2022-08-18T04:21:14;6.83;;;4.40;;
663;SDS011;314;48.770;9.246;2022-08-18T04:23:40;6.90;;;3.40;;
663;SDS011;314;48.770;9.246;2022-08-18T04:26:07;5.45;;;3.90;;
663;SDS011;314;48.770;9.246;2022-08-18T04:28:35;6.05;;;3.70;;
663;SDS011;314;48.770;9.246;2022-08-18T04:31:08;5.10;;;3.03;;
663;SDS011;314;48.770;9.246;2022-08-18T04:33:37;5.75;;;3.13;;
663;SDS011;314;48.770;9.246;2022-08-18T04:36:10;5.20;;;3.30;;
663;SDS011;314;48.770;9.246;2022-08-18T04:38:39;7.93;;;4.10;;
663;SDS011;314;48.770;9.246;2022-08-18T04:41:09;5.45;;;3.97;;
663;SDS011;314;48.770;9.246;2022-08-18T04:43:36;4.10;;;2.75;;
663;SDS011;314;48.770;9.246;2022-08-18T04:46:03;4.88;;;3.45;;
663;SDS011;314;48.770;9.246;2022-08-18T04:48:31;6.70;;;3.03;;
663;SDS011;314;48.770;9.246;2022-08-18T04:51:10;4.38;;;2.63;;
663;SDS011;314;48.770;9.246;2022-08-18T04:53:40;5.63;;;3.67;;
663;SDS011;314;48.770;9.246;2022-08-18T04:56:26;7.47;;;4.25;;
663;SDS011;314;48.770;9.246;2022-08-18T05:01:23;5.22;;;3.67;;
663;SDS011;314;48.770;9.246;2022-08-18T05:03:51;9.18;;;3.75;;
663;SDS011;314;48.770;9.246;2022-08-18T05:06:19;4.80;;;3.15;;
663;SDS011;314;48.770;9.246;2022-08-18T05:08:49;6.47;;;3.63;;
663;SDS011;314;48.770;9.246;2022-08-18T05:11:16;3.75;;;2.65;;
663;SDS011;314;48.770;9.246;2022-08-18T05:13:41;5.57;;;3.37;;
663;SDS011;314;48.770;9.246;2022-08-18T05:16:07;6.03;;;3.03;;
663;SDS011;314;48.770;9.246;2022-08-18T05:18:33;4.70;;;3.00;;
663;SDS011;314;48.770;9.246;2022-08-18T05:21:04;8.00;;;4.70;;
663;SDS011;314;48.770;9.246;2022-08-18T05:23:35;8.98;;;4.07;;
663;SDS011;314;48.770;9.246;2022-08-18T05:26:01;6.57;;;3.97;;
663;SDS011;314;48.770;9.246;2022-08-18T05:28:30;11.95;;;5.35;;
663;SDS011;314;48.770;9.246;2022-08-18T05:30:56;8.63;;;4.63;;
663;SDS011;314;48.770;9.246;2022-08-18T05:33:25;9.40;;;5.10;;
663;SDS011;314;48.770;9.246;2022-08-18T05:35:53;12.05;;;6.03;;
663;SDS011;314;48.770;9.246;2022-08-18T05:38:37;10.35;;;5.47;;
663;SDS011;314;48.770;9.246;2022-08-18T05:41:10;8.18;;;4.38;;
663;SDS011;314;48.770;9.246;2022-08-18T05:43:50;8.65;;;4.68;;
663;SDS011;314;48.770;9.246;2022-08-18T05:46:16;7.95;;;4.30;;
663;SDS011;314;48.770;9.246;2022-08-18T05:48:42;12.23;;;5.45;;
663;SDS011;314;48.770;9.246;2022-08-18T05:51:14;7.60;;;4.15;;
663;SDS011;314;48.770;9.246;2022-08-18T05:53:53;10.07;;;5.40;;
663;SDS011;314;48.770;9.246;2022-08-18T05:56:37;9.93;;;5.40;;
663;SDS011;314;48.770;9.246;2022-08-18T05:59:11;13.20;;;6.68;;
663;SDS011;314;48.770;9.246;2022-08-18T06:01:42;11.60;;;6.38;;
663;SDS011;314;48.770;9.246;2022-08-18T06:04:19;7.50;;;4.43;;
663;SDS011;314;48.770;9.246;2022-08-18T06:06:50;8.38;;;4.82;;
663;SDS011;314;48.770;9.246;2022-08-18T06:21:04;9.40;;;4.72;;
663;SDS011;314;48.770;9.246;2022-08-18T06:26:24;11.90;;;5.78;;
663;SDS011;314;48.770;9.246;2022-08-18T06:29:16;7.00;;;4.43;;
663;SDS011;314;48.770;9.246;2022-08-18T06:37:15;14.52;;;4.53;;
663;SDS011;314;48.770;9.246;2022-08-18T06:39:51;9.93;;;4.90;;
663;SDS011;314;48.770;9.246;2022-08-18T06:42:21;10.37;;;5.03;;
663;SDS011;314;48.770;9.246;2022-08-18T06:44:57;10.35;;;4.75;;
663;SDS011;314;48.770;9.246;2022-08-18T06:50:29;11.00;;;5.10;;
663;SDS011;314;48.770;9.246;2022-08-18T06:53:01;14.43;;;5.35;;
663;SDS011;314;48.770;9.246;2022-08-18T06:55:33;7.82;;;4.78;;
663;SDS011;314;48.770;9.246;2022-08-18T06:58:02;10.98;;;5.32;;
663;SDS011;314;48.770;9.246;2022-08-18T07:00:32;12.52;;;5.60;;
663;SDS011;314;48.770;9.246;2022-08-18T07:03:17;9.40;;;4.90;;
663;SDS011;314;48.770;9.246;2022-08-18T07:08:50;10.32;;;6.50;;
663;SDS011;314;48.770;9.246;2022-08-18T07:11:33;9.73;;;5.18;;
663;SDS011;314;48.770;9.246;2022-08-18T07:14:12;10.63;;;5.95;;
663;SDS011;314;48.770;9.246;2022-08-18T07:16:45;13.85;;;6.38;;
663;SDS011;314;48.770;9.246;2022-08-18T07:19:16;9.25;;;4.10;;
663;SDS011;314;48.770;9.246;2022-08-18T07:22:06;14.48;;;5.32;;
663;SDS011;314;48.770;9.246;2022-08-18T07:24:41;8.00;;;4.75;;
663;SDS011;314;48.770;9.246;2022-08-18T07:27:14;8.23;;;4.15;;
663;SDS011;314;48.770;9.246;2022-08-18T07:32:35;13.98;;;5.30;;
663;SDS011;314;48.770;9.246;2022-08-18T07:35:06;9.13;;;4.55;;
663;SDS011;314;48.770;9.246;2022-08-18T07:37:37;14.20;;;5.45;;
663;SDS011;314;48.770;9.246;2022-08-18T07:42:58;8.10;;;4.60;;
663;SDS011;314;48.770;9.246;2022-08-18T07:45:32;7.47;;;3.80;;
663;SDS011;314;48.770;9.246;2022-08-18T07:48:22;8.50;;;4.00;;
663;SDS011;314;48.770;9.246;2022-08-18T07:56:27;8.02;;;4.78;;
663;SDS011;314;48.770;9.246;2022-08-18T07:59:13;8.13;;;4.78;;
663;SDS011;314;48.770;9.246;2022-08-18T08:01:51;9.13;;;5.20;;
663;SDS011;314;48.770;9.246;2022-08-18T08:07:40;7.68;;;4.50;;
663;SDS011;314;48.770;9.246;2022-08-18T08:10:27;5.88;;;3.92;;
663;SDS011;314;48.770;9.246;2022-08-18T08:15:55;5.68;;;3.95;;
663;SDS011;314;48.770;9.246;2022-08-18T08:18:41;7.63;;;5.88;;
663;SDS011;314;48.770;9.246;2022-08-18T08:21:43;6.18;;;4.18;;
663;SDS011;314;48.770;9.246;2022-08-18T08:24:19;7.68;;;3.92;;
663;SDS011;314;48.770;9.246;2022-08-18T08:27:01;13.98;;;4.88;;
663;SDS011;314;48.770;9.246;2022-08-18T08:32:24;14.63;;;5.13;;
663;SDS011;314;48.770;9.246;2022-08-18T08:35:05;8.48;;;4.05;;
663;SDS011;314;48.770;9.246;2022-08-18T08:43:35;6.20;;;3.45;;
663;SDS011;314;48.770;9.246;2022-08-18T08:48:31;6.30;;;3.90;;
663;SDS011;314;48.770;9.246;2022-08-18T08:51:29;8.60;;;4.68;;
663;SDS011;314;48.770;9.246;2022-08-18T08:54:16;8.02;;;4.68;;
663;SDS011;314;48.770;9.246;2022-08-18T08:56:54;11.65;;;5.25;;
663;SDS011;314;48.770;9.246;2022-08-18T08:59:24;8.30;;;4.97;;
663;SDS011;314;48.770;9.246;2022-08-18T09:04:40;9.05;;;3.90;;
663;SDS011;314;48.770;9.246;2022-08-18T09:07:42;9.50;;;4.90;;
663;SDS011;314;48.770;9.246;2022-08-18T09:10:35;10.00;;;5.70;;
663;SDS011;314;48.770;9.246;2022-08-18T09:21:21;9.68;;;4.80;;
663;SDS011;314;48.770;9.246;2022-08-18T09:24:24;6.38;;;4.63;;
663;SDS011;314;48.770;9.246;2022-08-18T09:37:48;7.38;;;3.95;;
663;SDS011;314;48.770;9.246;2022-08-18T09:40:49;5.60;;;3.97;;
663;SDS011;314;48.770;9.246;2022-08-18T09:43:54;7.43;;;4.47;;
663;SDS011;314;48.770;9.246;2022-08-18T09:54:21;8.90;;;5.35;;
663;SDS011;314;48.770;9.246;2022-08-18T10:01:57;13.65;;;4.57;;
663;SDS011;314;48.770;9.246;2022-08-18T10:04:31;8.65;;;5.25;;
663;SDS011;314;48.770;9.246;2022-08-18T10:15:34;8.55;;;5.10;;
663;SDS011;314;48.770;9.246;2022-08-18T10:21:10;9.23;;;4.82;;
663;SDS011;314;48.770;9.246;2022-08-18T10:29:05;9.65;;;5.07;;
663;SDS011;314;48.770;9.246;2022-08-18T10:42:38;8.57;;;5.32;;
663;SDS011;314;48.770;9.246;2022-08-18T10:48:07;20.50;;;5.25;;
663;SDS011;314;48.770;9.246;2022-08-18T10:51:15;9.40;;;5.20;;
663;SDS011;314;48.770;9.246;2022-08-18T10:54:01;7.18;;;4.70;;
663;SDS011;314;48.770;9.246;2022-08-18T10:57:07;8.13;;;4.80;;
663;SDS011;314;48.770;9.246;2022-08-18T11:00:01;6.20;;;4.03;;
663;SDS011;314;48.770;9.246;2022-08-18T11:05:39;10.00;;;5.55;;
663;SDS011;314;48.770;9.246;2022-08-18T11:08:08;7.32;;;4.45;;
663;SDS011;314;48.770;9.246;2022-08-18T11:10:42;10.95;;;4.95;;
663;SDS011;314;48.770;9.246;2022-08-18T11:18:34;8.43;;;5.00;;
663;SDS011;314;48.770;9.246;2022-08-18T11:21:24;7.63;;;4.85;;
663;SDS011;314;48.770;9.246;2022-08-18T11:24:16;7.30;;;4.30;;
663;SDS011;314;48.770;9.246;2022-08-18T11:26:47;7.28;;;4.75;;
663;SDS011;314;48.770;9.246;2022-08-18T11:29:20;10.27;;;5.35;;
663;SDS011;314;48.770;9.246;2022-08-18T11:34:38;11.32;;;5.47;;
663;SDS011;314;48.770;9.246;2022-08-18T11:37:31;7.30;;;5.38;;
663;SDS011;314;48.770;9.246;2022-08-18T11:39:58;12.43;;;6.07;;
663;SDS011;314;48.770;9.246;2022-08-18T11:42:27;5.55;;;4.82;;
663;SDS011;314;48.770;9.246;2022-08-18T11:50:28;9.90;;;4.70;;
663;SDS011;314;48.770;9.246;2022-08-18T11:52:56;8.45;;;5.20;;
663;SDS011;314;48.770;9.246;2022-08-18T11:55:29;9.50;;;5.10;;
663;SDS011;314;48.770;9.246;2022-08-18T11:57:58;8.63;;;4.90;;
663;SDS011;314;48.770;9.246;2022-08-18T12:05:44;9.38;;;5.85;;
663;SDS011;314;48.770;9.246;2022-08-18T12:08:15;11.73;;;5.45;;
663;SDS011;314;48.770;9.246;2022-08-18T12:10:42;11.32;;;5.53;;
663;SDS011;314;48.770;9.246;2022-08-18T12:13:08;8.98;;;4.80;;
663;SDS011;314;48.770;9.246;2022-08-18T12:15:34;7.47;;;5.05;;
663;SDS011;314;48.770;9.246;2022-08-18T12:18:02;8.55;;;5.47;;
663;SDS011;314;48.770;9.246;2022-08-18T12:20:28;7.80;;;5.05;;
663;SDS011;314;48.770;9.246;2022-08-18T12:22:55;8.50;;;4.82;;
663;SDS011;314;48.770;9.246;2022-08-18T12:25:21;11.88;;;6.40;;
663;SDS011;314;48.770;9.246;2022-08-18T12:27:48;8.13;;;4.97;;
663;SDS011;314;48.770;9.246;2022-08-18T12:30:14;7.47;;;5.22;;
663;SDS011;314;48.770;9.246;2022-08-18T12:32:59;8.68;;;4.88;;
663;SDS011;314;48.770;9.246;2022-08-18T12:35:29;8.00;;;5.47;;
663;SDS011;314;48.770;9.246;2022-08-18T12:37:55;8.90;;;6.20;;
663;SDS011;314;48.770;9.246;2022-08-18T12:40:21;8.25;;;5.68;;
663;SDS011;314;48.770;9.246;2022-08-18T12:42:50;9.27;;;5.00;;
663;SDS011;314;48.770;9.246;2022-08-18T12:45:16;6.78;;;4.72;;
663;SDS011;314;48.770;9.246;2022-08-18T12:47:43;9.23;;;5.82;;
663;SDS011;314;48.770;9.246;2022-08-18T12:50:12;6.43;;;5.07;;
663;SDS011;314;48.770;9.246;2022-08-18T12:52:38;6.43;;;4.05;;
663;SDS011;314;48.770;9.246;2022-08-18T12:55:04;7.30;;;4.32;;
663;SDS011;314;48.770;9.246;2022-08-18T12:57:33;6.25;;;4.70;;
663;SDS011;314;48.770;9.246;2022-08-18T13:00:00;13.60;;;6.50;;
663;SDS011;314;48.770;9.246;2022-08-18T13:02:26;5.55;;;4.45;;
663;SDS011;314;48.770;9.246;2022-08-18T13:04:52;10.40;;;5.72;;
663;SDS011;314;48.770;9.246;2022-08-18T13:07:19;7.55;;;5.13;;
663;SDS011;314;48.770;9.246;2022-08-18T13:09:45;10.52;;;5.85;;
663;SDS011;314;48.770;9.246;2022-08-18T13:12:12;9.73;;;4.78;;
663;SDS011;314;48.770;9.246;2022-08-18T13:14:38;7.68;;;5.45;;
663;SDS011;314;48.770;9.246;2022-08-18T13:17:04;7.88;;;4.65;;
663;SDS011;314;48.770;9.246;2022-08-18T13:19:30;6.55;;;4.30;;
663;SDS011;314;48.770;9.246;2022-08-18T13:21:57;7.10;;;4.25;;
663;SDS011;314;48.770;9.246;2022-08-18T13:24:23;6.78;;;4.22;;
663;SDS011;314;48.770;9.246;2022-08-18T13:26:51;9.30;;;5.32;;
663;SDS011;314;48.770;9.246;2022-08-18T13:29:17;7.68;;;5.05;;
663;SDS011;314;48.770;9.246;2022-08-18T13:31:44;7.00;;;4.00;;
663;SDS011;314;48.770;9.246;2022-08-18T13:34:11;8.00;;;3.85;;
663;SDS011;314;48.770;9.246;2022-08-18T13:36:37;8.05;;;4.20;;
663;SDS011;314;48.770;9.246;2022-08-18T13:39:10;8.00;;;5.40;;
663;SDS011;314;48.770;9.246;2022-08-18T13:41:37;11.18;;;5.20;;
663;SDS011;314;48.770;9.246;2022-08-18T13:44:03;7.32;;;5.07;;
663;SDS011;314;48.770;9.246;2022-08-18T13:46:29;5.60;;;3.60;;
663;SDS011;314;48.770;9.246;2022-08-18T13:48:55;5.82;;;3.97;;
663;SDS011;314;48.770;9.246;2022-08-18T13:51:27;7.55;;;4.20;;
663;SDS011;314;48.770;9.246;2022-08-18T13:53:53;7.03;;;4.38;;
663;SDS011;314;48.770;9.246;2022-08-18T13:56:20;5.13;;;3.92;;
663;SDS011;314;48.770;9.246;2022-08-18T13:58:46;15.23;;;4.82;;
663;SDS011;314;48.770;9.246;2022-08-18T14:01:12;5.35;;;3.72;;
663;SDS011;314;48.770;9.246;2022-08-18T14:03:38;5.75;;;3.83;;
663;SDS011;314;48.770;9.246;2022-08-18T14:06:06;7.50;;;3.80;;
663;SDS011;314;48.770;9.246;2022-08-18T14:08:32;5.70;;;3.75;;
663;SDS011;314;48.770;9.246;2022-08-18T14:11:00;3.42;;;3.10;;
663;SDS011;314;48.770;9.246;2022-08-18T14:13:27;8.30;;;4.95;;
663;SDS011;314;48.770;9.246;2022-08-18T14:15:57;7.82;;;4.18;;
663;SDS011;314;48.770;9.246;2022-08-18T14:18:23;7.13;;;4.25;;
663;SDS011;314;48.770;9.246;2022-08-18T14:20:50;4.15;;;3.47;;
663;SDS011;314;48.770;9.246;2022-08-18T14:23:35;8.13;;;4.65;;
663;SDS011;314;48.770;9.246;2022-08-18T14:26:19;5.53;;;3.88;;
663;SDS011;314;48.770;9.246;2022-08-18T14:29:03;5.55;;;3.50;;
663;SDS011;314;48.770;9.246;2022-08-18T14:31:30;6.37;;;3.80;;
663;SDS011;314;48.770;9.246;2022-08-18T14:33:56;4.63;;;3.72;;
663;SDS011;314;48.770;9.246;2022-08-18T14:36:23;5.63;;;3.72;;
663;SDS011;314;48.770;9.246;2022-08-18T14:38:49;5.23;;;3.87;;
663;SDS011;314;48.770;9.246;2022-08-18T14:41:15;6.93;;;4.07;;
663;SDS011;314;48.770;9.246;2022-08-18T14:43:41;6.32;;;4.05;;
663;SDS011;314;48.770;9.246;2022-08-18T14:46:09;5.45;;;3.92;;
663;SDS011;314;48.770;9.246;2022-08-18T14:48:36;6.75;;;3.97;;
663;SDS011;314;48.770;9.246;2022-08-18T14:51:02;8.20;;;4.80;;
663;SDS011;314;48.770;9.246;2022-08-18T14:53:29;5.63;;;4.20;;
663;SDS011;314;48.770;9.246;2022-08-18T14:56:01;6.57;;;4.40;;
663;SDS011;314;48.770;9.246;2022-08-18T14:58:29;6.70;;;4.10;;
663;SDS011;314;48.770;9.246;2022-08-18T15:00:56;6.80;;;3.75;;
663;SDS011;314;48.770;9.246;2022-08-18T15:03:25;7.53;;;4.25;;
663;SDS011;314;48.770;9.246;2022-08-18T15:05:52;6.78;;;3.85;;
663;SDS011;314;48.770;9.246;2022-08-18T15:08:19;6.30;;;3.77;;
663;SDS011;314;48.770;9.246;2022-08-18T15:10:45;8.27;;;4.55;;
663;SDS011;314;48.770;9.246;2022-08-18T15:13:11;6.03;;;3.92;;
663;SDS011;314;48.770;9.246;2022-08-18T15:15:37;8.77;;;4.90;;
663;SDS011;314;48.770;9.246;2022-08-18T15:18:03;5.20;;;3.90;;
663;SDS011;314;48.770;9.246;2022-08-18T15:20:29;4.57;;;3.40;;
663;SDS011;314;48.770;9.246;2022-08-18T15:23:00;5.45;;;4.32;;
663;SDS011;314;48.770;9.246;2022-08-18T15:25:46;7.63;;;4.45;;
663;SDS011;314;48.770;9.246;2022-08-18T15:30:46;7.93;;;4.07;;
663;SDS011;314;48.770;9.246;2022-08-18T15:33:13;5.60;;;4.40;;
663;SDS011;314;48.770;9.246;2022-08-18T15:35:42;6.35;;;3.83;;
663;SDS011;314;48.770;9.246;2022-08-18T15:38:11;5.78;;;4.35;;
663;SDS011;314;48.770;9.246;2022-08-18T15:43:17;9.82;;;4.40;;
663;SDS011;314;48.770;9.246;2022-08-18T15:45:43;7.45;;;4.55;;
663;SDS011;314;48.770;9.246;2022-08-18T15:48:15;7.43;;;4.18;;
663;SDS011;314;48.770;9.246;2022-08-18T15:50:43;6.63;;;4.38;;
663;SDS011;314;48.770;9.246;2022-08-18T15:53:13;4.15;;;3.70;;
663;SDS011;314;48.770;9.246;2022-08-18T15:55:40;8.98;;;4.68;;
663;SDS011;314;48.770;9.246;2022-08-18T15:58:08;7.45;;;4.50;;
663;SDS011;314;48.770;9.246;2022-08-18T16:00:35;7.03;;;4.75;;
663;SDS011;314;48.770;9.246;2022-08-18T16:03:04;6.38;;;4.20;;
663;SDS011;314;48.770;9.246;2022-08-18T16:05:32;5.00;;;3.50;;
663;SDS011;314;48.770;9.246;2022-08-18T16:08:01;6.97;;;4.20;;
663;SDS011;314;48.770;9.246;2022-08-18T16:10:29;8.05;;;4.25;;
663;SDS011;314;48.770;9.246;2022-08-18T16:12:57;6.10;;;4.25;;
663;SDS011;314;48.770;9.246;2022-08-18T16:15:25;5.03;;;3.70;;
663;SDS011;314;48.770;9.246;2022-08-18T16:17:52;4.50;;;3.42;;
663;SDS011;314;48.770;9.246;2022-08-18T16:20:19;4.57;;;3.72;;
663;SDS011;314;48.770;9.246;2022-08-18T16:22:50;7.18;;;4.25;;
663;SDS011;314;48.770;9.246;2022-08-18T16:25:17;6.30;;;4.05;;
663;SDS011;314;48.770;9.246;2022-08-18T16:27:44;9.93;;;5.28;;
663;SDS011;314;48.770;9.246;2022-08-18T16:30:12;6.45;;;4.20;;
663;SDS011;314;48.770;9.246;2022-08-18T16:32:41;8.55;;;4.10;;
663;SDS011;314;48.770;9.246;2022-08-18T16:35:07;7.30;;;4.50;;
663;SDS011;314;48.770;9.246;2022-08-18T16:37:33;5.55;;;4.53;;
663;SDS011;314;48.770;9.246;2022-08-18T16:39:59;9.80;;;4.25;;
663;SDS011;314;48.770;9.246;2022-08-18T16:42:26;5.18;;;4.22;;
663;SDS011;314;48.770;9.246;2022-08-18T16:44:57;8.02;;;4.85;;
663;SDS011;314;48.770;9.246;2022-08-18T16:47:23;7.05;;;5.00;;
663;SDS011;314;48.770;9.246;2022-08-18T16:49:49;5.57;;;4.03;;
663;SDS011;314;48.770;9.246;2022-08-18T16:52:15;4.80;;;4.00;;
663;SDS011;314;48.770;9.246;2022-08-18T16:54:44;5.32;;;4.00;;
663;SDS011;314;48.770;9.246;2022-08-18T16:57:10;7.13;;;3.83;;
663;SDS011;314;48.770;9.246;2022-08-18T16:59:37;5.55;;;3.42;;
663;SDS011;314;48.770;9.246;2022-08-18T17:02:22;10.23;;;3.00;;
663;SDS011;314;48.770;9.246;2022-08-18T17:05:07;7.55;;;4.90;;
663;SDS011;314;48.770;9.246;2022-08-18T17:07:34;8.15;;;4.60;;
663;SDS011;314;48.770;9.246;2022-08-18T17:10:01;8.85;;;4.43;;
663;SDS011;314;48.770;9.246;2022-08-18T17:12:28;7.32;;;4.78;;
663;SDS011;314;48.770;9.246;2022-08-18T17:14:54;9.20;;;5.10;;
663;SDS011;314;48.770;9.246;2022-08-18T17:17:20;7.17;;;4.20;;
663;SDS011;314;48.770;9.246;2022-08-18T17:19:47;6.45;;;4.55;;
663;SDS011;314;48.770;9.246;2022-08-18T17:22:14;6.30;;;4.50;;
663;SDS011;314;48.770;9.246;2022-08-18T17:24:41;6.63;;;4.38;;
663;SDS011;314;48.770;9.246;2022-08-18T17:32:50;6.47;;;4.13;;
663;SDS011;314;48.770;9.246;2022-08-18T17:35:21;6.07;;;4.53;;
663;SDS011;314;48.770;9.246;2022-08-18T17:37:54;5.97;;;4.43;;
663;SDS011;314;48.770;9.246;2022-08-18T17:40:57;6.60;;;4.60;;
663;SDS011;314;48.770;9.246;2022-08-18T17:43:22;6.07;;;4.80;;
663;SDS011;314;48.770;9.246;2022-08-18T17:45:53;6.22;;;4.45;;
663;SDS011;314;48.770;9.246;2022-08-18T17:48:24;6.88;;;4.22;;
663;SDS011;314;48.770;9.246;2022-08-18T17:51:00;8.93;;;5.50;;
663;SDS011;314;48.770;9.246;2022-08-18T17:53:49;6.53;;;4.80;;
663;SDS011;314;48.770;9.246;2022-08-18T17:56:19;7.53;;;4.83;;
663;SDS011;314;48.770;9.246;2022-08-18T17:58:58;8.68;;;5.25;;
663;SDS011;314;48.770;9.246;2022-08-18T18:01:31;5.38;;;4.45;;
663;SDS011;314;48.770;9.246;2022-08-18T18:03:59;7.45;;;4.80;;
663;SDS011;314;48.770;9.246;2022-08-18T18:11:35;8.27;;;5.38;;
663;SDS011;314;48.770;9.246;2022-08-18T18:14:25;5.15;;;3.90;;
663;SDS011;314;48.770;9.246;2022-08-18T18:19:50;8.48;;;5.25;;
663;SDS011;314;48.770;9.246;2022-08-18T18:22:22;10.27;;;5.63;;
663;SDS011;314;48.770;9.246;2022-08-18T18:24:58;7.95;;;4.85;;
663;SDS011;314;48.770;9.246;2022-08-18T18:30:01;10.13;;;7.05;;
663;SDS011;314;48.770;9.246;2022-08-18T18:32:32;11.88;;;7.10;;
663;SDS011;314;48.770;9.246;2022-08-18T18:37:48;12.10;;;6.32;;
663;SDS011;314;48.770;9.246;2022-08-18T18:42:52;14.63;;;6.97;;
663;SDS011;314;48.770;9.246;2022-08-18T18:45:26;11.70;;;7.00;;
663;SDS011;314;48.770;9.246;2022-08-18T18:50:29;13.07;;;6.50;;
663;SDS011;314;48.770;9.246;2022-08-18T18:55:56;13.80;;;7.47;;
663;SDS011;314;48.770;9.246;2022-08-18T19:00:59;9.10;;;6.35;;
663;SDS011;314;48.770;9.246;2022-08-18T19:14:21;10.13;;;6.05;;
663;SDS011;314;48.770;9.246;2022-08-18T19:16:57;14.35;;;7.30;;
663;SDS011;314;48.770;9.246;2022-08-18T19:19:36;14.02;;;7.78;;